Terminal Aerodrome Forecast
Issued by NWS

Home | Current Version | Previous Version | Text Only | Print | Product List | Glossary On
Versions: 1 2 3 4 5 6 7 8 9 10 11 12 13 14 15 16 17
000
FTUS41 KBGM 252009 AAA
TAFELM
TAF AMD
KELM 252009Z 2520/2618 21005KT P6SM -SHRA OVC100
     FM252100 23005KT P6SM OVC120
     FM252300 26005KT P6SM SCT070
     FM260800 VRB03KT 4SM BR SKC
      TEMPO 2609/2613 1/2SM FG VV002
     FM261400 30009KT P6SM FEW250=

USA.gov is the U.S. government's official web portal to all federal, state and local government web resources and services.